sensor_id;sensor_type;location;lat;lon;timestamp;pressure;altitude;pressure_sealevel;temperature
69415;BMP280;56608;43.530;-5.652;2023-05-10T00:00:52;102383.09;;;16.14
69415;BMP280;56608;43.530;-5.652;2023-05-10T00:01:52;102383.59;;;16.09
69415;BMP280;56608;43.530;-5.652;2023-05-10T00:02:53;102384.12;;;16.03
69415;BMP280;56608;43.530;-5.652;2023-05-10T00:03:53;102377.84;;;16.07
69415;BMP280;56608;43.530;-5.652;2023-05-10T00:04:53;102381.56;;;16.13
69415;BMP280;56608;43.530;-5.652;2023-05-10T00:05:54;102386.72;;;16.07
69415;BMP280;56608;43.530;-5.652;2023-05-10T00:06:54;102380.22;;;16.04
69415;BMP280;56608;43.530;-5.652;2023-05-10T00:07:54;102381.50;;;16.00
69415;BMP280;56608;43.530;-5.652;2023-05-10T00:08:55;102381.19;;;15.98
69415;BMP280;56608;43.530;-5.652;2023-05-10T00:09:55;102379.97;;;15.86
69415;BMP280;56608;43.530;-5.652;2023-05-10T00:10:55;102381.81;;;15.89
69415;BMP280;56608;43.530;-5.652;2023-05-10T00:11:56;102382.31;;;15.84
69415;BMP280;56608;43.530;-5.652;2023-05-10T00:12:58;102381.78;;;15.77
69415;BMP280;56608;43.530;-5.652;2023-05-10T00:13:58;102379.50;;;15.75
69415;BMP280;56608;43.530;-5.652;2023-05-10T00:14:59;102384.91;;;15.75
69415;BMP280;56608;43.530;-5.652;2023-05-10T00:15:59;102377.44;;;15.79
69415;BMP280;56608;43.530;-5.652;2023-05-10T00:16:59;102383.19;;;15.81
69415;BMP280;56608;43.530;-5.652;2023-05-10T00:18:00;102372.16;;;15.88
69415;BMP280;56608;43.530;-5.652;2023-05-10T00:19:00;102375.56;;;15.92
69415;BMP280;56608;43.530;-5.652;2023-05-10T00:20:01;102374.38;;;15.93
69415;BMP280;56608;43.530;-5.652;2023-05-10T00:21:01;102378.91;;;15.96
69415;BMP280;56608;43.530;-5.652;2023-05-10T00:22:01;102382.03;;;15.95
69415;BMP280;56608;43.530;-5.652;2023-05-10T00:23:01;102379.09;;;15.89
69415;BMP280;56608;43.530;-5.652;2023-05-10T00:24:02;102381.78;;;15.77
69415;BMP280;56608;43.530;-5.652;2023-05-10T00:25:02;102375.69;;;15.73
69415;BMP280;56608;43.530;-5.652;2023-05-10T00:26:03;102382.72;;;15.70
69415;BMP280;56608;43.530;-5.652;2023-05-10T00:27:03;102372.50;;;15.61
69415;BMP280;56608;43.530;-5.652;2023-05-10T00:28:04;102373.75;;;15.57
69415;BMP280;56608;43.530;-5.652;2023-05-10T00:29:04;102373.59;;;15.64
69415;BMP280;56608;43.530;-5.652;2023-05-10T00:30:04;102369.47;;;15.59
69415;BMP280;56608;43.530;-5.652;2023-05-10T00:31:06;102367.28;;;15.54
69415;BMP280;56608;43.530;-5.652;2023-05-10T00:32:06;102361.28;;;15.47
69415;BMP280;56608;43.530;-5.652;2023-05-10T00:33:06;102364.66;;;15.51
69415;BMP280;56608;43.530;-5.652;2023-05-10T00:34:07;102365.59;;;15.44
69415;BMP280;56608;43.530;-5.652;2023-05-10T00:35:07;102369.59;;;15.40
69415;BMP280;56608;43.530;-5.652;2023-05-10T00:36:08;102367.47;;;15.47
69415;BMP280;56608;43.530;-5.652;2023-05-10T00:37:08;102358.75;;;15.40
69415;BMP280;56608;43.530;-5.652;2023-05-10T00:38:08;102365.34;;;15.39
69415;BMP280;56608;43.530;-5.652;2023-05-10T00:39:09;102362.13;;;15.27
69415;BMP280;56608;43.530;-5.652;2023-05-10T00:40:09;102362.81;;;15.32
69415;BMP280;56608;43.530;-5.652;2023-05-10T00:41:10;102359.78;;;15.30
69415;BMP280;56608;43.530;-5.652;2023-05-10T00:42:10;102360.12;;;15.32
69415;BMP280;56608;43.530;-5.652;2023-05-10T00:43:10;102354.69;;;15.32
69415;BMP280;56608;43.530;-5.652;2023-05-10T00:44:11;102355.22;;;15.27
69415;BMP280;56608;43.530;-5.652;2023-05-10T00:45:11;102362.34;;;15.20
69415;BMP280;56608;43.530;-5.652;2023-05-10T00:46:11;102354.81;;;15.12
69415;BMP280;56608;43.530;-5.652;2023-05-10T00:47:12;102353.09;;;15.18
69415;BMP280;56608;43.530;-5.652;2023-05-10T00:48:12;102354.06;;;15.11
69415;BMP280;56608;43.530;-5.652;2023-05-10T00:49:13;102349.13;;;15.06
69415;BMP280;56608;43.530;-5.652;2023-05-10T00:50:14;102350.16;;;15.12
69415;BMP280;56608;43.530;-5.652;2023-05-10T00:51:14;102340.69;;;15.04
69415;BMP280;56608;43.530;-5.652;2023-05-10T00:52:14;102352.88;;;14.96
69415;BMP280;56608;43.530;-5.652;2023-05-10T00:53:15;102336.44;;;15.03
69415;BMP280;56608;43.530;-5.652;2023-05-10T00:54:16;102344.22;;;15.01
69415;BMP280;56608;43.530;-5.652;2023-05-10T00:55:16;102336.38;;;14.91
69415;BMP280;56608;43.530;-5.652;2023-05-10T00:56:17;102336.56;;;14.83
69415;BMP280;56608;43.530;-5.652;2023-05-10T00:57:17;102337.38;;;14.80
69415;BMP280;56608;43.530;-5.652;2023-05-10T00:58:17;102335.28;;;14.88
69415;BMP280;56608;43.530;-5.652;2023-05-10T00:59:18;102332.31;;;14.82
69415;BMP280;56608;43.530;-5.652;2023-05-10T01:00:18;102329.34;;;14.93
69415;BMP280;56608;43.530;-5.652;2023-05-10T01:01:19;102326.22;;;14.95
69415;BMP280;56608;43.530;-5.652;2023-05-10T01:02:19;102329.50;;;15.02
69415;BMP280;56608;43.530;-5.652;2023-05-10T01:03:20;102322.91;;;15.03
69415;BMP280;56608;43.530;-5.652;2023-05-10T01:04:20;102327.84;;;15.08
69415;BMP280;56608;43.530;-5.652;2023-05-10T01:05:25;102328.16;;;14.94
69415;BMP280;56608;43.530;-5.652;2023-05-10T01:06:27;102329.16;;;15.00
69415;BMP280;56608;43.530;-5.652;2023-05-10T01:07:27;102328.00;;;15.01
69415;BMP280;56608;43.530;-5.652;2023-05-10T01:08:28;102322.06;;;15.06
69415;BMP280;56608;43.530;-5.652;2023-05-10T01:09:28;102317.56;;;15.00
69415;BMP280;56608;43.530;-5.652;2023-05-10T01:10:29;102326.38;;;14.87
69415;BMP280;56608;43.530;-5.652;2023-05-10T01:11:29;102323.62;;;14.91
69415;BMP280;56608;43.530;-5.652;2023-05-10T01:12:30;102322.75;;;14.94
69415;BMP280;56608;43.530;-5.652;2023-05-10T01:14:31;102320.22;;;15.03
69415;BMP280;56608;43.530;-5.652;2023-05-10T01:15:31;102321.75;;;15.04
69415;BMP280;56608;43.530;-5.652;2023-05-10T01:16:33;102307.19;;;15.14
69415;BMP280;56608;43.530;-5.652;2023-05-10T01:17:38;102314.78;;;15.19
69415;BMP280;56608;43.530;-5.652;2023-05-10T01:18:39;102312.09;;;15.19
69415;BMP280;56608;43.530;-5.652;2023-05-10T01:19:40;102313.38;;;15.15
69415;BMP280;56608;43.530;-5.652;2023-05-10T01:20:42;102314.13;;;15.15
69415;BMP280;56608;43.530;-5.652;2023-05-10T01:21:48;102313.44;;;15.11
69415;BMP280;56608;43.530;-5.652;2023-05-10T01:24:16;102317.25;;;14.98
69415;BMP280;56608;43.530;-5.652;2023-05-10T01:27:07;102319.28;;;14.94
69415;BMP280;56608;43.530;-5.652;2023-05-10T01:29:36;102319.03;;;14.72
69415;BMP280;56608;43.530;-5.652;2023-05-10T01:32:52;102321.34;;;14.54
69415;BMP280;56608;43.530;-5.652;2023-05-10T01:33:56;102313.34;;;14.50
69415;BMP280;56608;43.530;-5.652;2023-05-10T01:36:08;102315.31;;;14.66
69415;BMP280;56608;43.530;-5.652;2023-05-10T01:37:11;102315.81;;;14.61
69415;BMP280;56608;43.530;-5.652;2023-05-10T01:39:28;102311.84;;;14.65
69415;BMP280;56608;43.530;-5.652;2023-05-10T01:40:32;102308.56;;;14.58
69415;BMP280;56608;43.530;-5.652;2023-05-10T01:42:39;102305.41;;;14.59
69415;BMP280;56608;43.530;-5.652;2023-05-10T01:43:42;102301.78;;;14.66
69415;BMP280;56608;43.530;-5.652;2023-05-10T01:44:53;102303.66;;;14.69
69415;BMP280;56608;43.530;-5.652;2023-05-10T01:46:02;102305.91;;;14.70
69415;BMP280;56608;43.530;-5.652;2023-05-10T01:48:29;102302.97;;;14.65
69415;BMP280;56608;43.530;-5.652;2023-05-10T01:49:31;102298.41;;;14.62
69415;BMP280;56608;43.530;-5.652;2023-05-10T01:50:32;102297.22;;;14.63
69415;BMP280;56608;43.530;-5.652;2023-05-10T01:51:52;102301.13;;;14.62
69415;BMP280;56608;43.530;-5.652;2023-05-10T01:52:55;102303.06;;;14.61
69415;BMP280;56608;43.530;-5.652;2023-05-10T01:53:58;102302.09;;;14.52
69415;BMP280;56608;43.530;-5.652;2023-05-10T01:55:01;102307.44;;;14.55
69415;BMP280;56608;43.530;-5.652;2023-05-10T01:56:02;102307.84;;;14.54
69415;BMP280;56608;43.530;-5.652;2023-05-10T01:57:03;102304.81;;;14.52
69415;BMP280;56608;43.530;-5.652;2023-05-10T01:58:06;102308.06;;;14.63
69415;BMP280;56608;43.530;-5.652;2023-05-10T01:59:11;102310.25;;;14.68
69415;BMP280;56608;43.530;-5.652;2023-05-10T02:00:12;102316.94;;;14.63
69415;BMP280;56608;43.530;-5.652;2023-05-10T02:01:13;102306.84;;;14.64
69415;BMP280;56608;43.530;-5.652;2023-05-10T02:02:13;102311.06;;;14.65
69415;BMP280;56608;43.530;-5.652;2023-05-10T02:03:15;102305.00;;;14.61
69415;BMP280;56608;43.530;-5.652;2023-05-10T02:04:16;102301.88;;;14.62
69415;BMP280;56608;43.530;-5.652;2023-05-10T02:05:17;102306.53;;;14.62
69415;BMP280;56608;43.530;-5.652;2023-05-10T02:06:18;102303.31;;;14.67
69415;BMP280;56608;43.530;-5.652;2023-05-10T02:07:20;102305.66;;;14.65
69415;BMP280;56608;43.530;-5.652;2023-05-10T02:08:22;102299.59;;;14.61
69415;BMP280;56608;43.530;-5.652;2023-05-10T02:09:22;102307.34;;;14.59
69415;BMP280;56608;43.530;-5.652;2023-05-10T02:10:24;102308.81;;;14.63
69415;BMP280;56608;43.530;-5.652;2023-05-10T02:11:25;102305.19;;;14.70
69415;BMP280;56608;43.530;-5.652;2023-05-10T02:12:26;102306.34;;;14.69
69415;BMP280;56608;43.530;-5.652;2023-05-10T02:13:27;102306.25;;;14.72
69415;BMP280;56608;43.530;-5.652;2023-05-10T02:14:29;102304.56;;;14.78
69415;BMP280;56608;43.530;-5.652;2023-05-10T02:15:30;102306.34;;;14.69
69415;BMP280;56608;43.530;-5.652;2023-05-10T02:16:31;102306.53;;;14.62
69415;BMP280;56608;43.530;-5.652;2023-05-10T02:17:32;102300.94;;;14.69
69415;BMP280;56608;43.530;-5.652;2023-05-10T02:18:33;102301.78;;;14.66
69415;BMP280;56608;43.530;-5.652;2023-05-10T02:19:34;102288.91;;;14.54
69415;BMP280;56608;43.530;-5.652;2023-05-10T02:20:35;102289.53;;;14.61
69415;BMP280;56608;43.530;-5.652;2023-05-10T02:21:36;102294.69;;;14.56
69415;BMP280;56608;43.530;-5.652;2023-05-10T02:22:37;102285.88;;;14.52
69415;BMP280;56608;43.530;-5.652;2023-05-10T02:23:38;102284.63;;;14.56
69415;BMP280;56608;43.530;-5.652;2023-05-10T02:24:39;102290.19;;;14.49
69415;BMP280;56608;43.530;-5.652;2023-05-10T02:25:40;102287.06;;;14.51
69415;BMP280;56608;43.530;-5.652;2023-05-10T02:26:41;102281.97;;;14.53
69415;BMP280;56608;43.530;-5.652;2023-05-10T02:27:42;102284.00;;;14.48
69415;BMP280;56608;43.530;-5.652;2023-05-10T02:28:43;102289.41;;;14.48
69415;BMP280;56608;43.530;-5.652;2023-05-10T02:29:44;102290.44;;;14.55
69415;BMP280;56608;43.530;-5.652;2023-05-10T02:30:45;102288.78;;;14.61
69415;BMP280;56608;43.530;-5.652;2023-05-10T02:31:47;102284.25;;;14.54
69415;BMP280;56608;43.530;-5.652;2023-05-10T02:32:48;102278.81;;;14.58
69415;BMP280;56608;43.530;-5.652;2023-05-10T02:33:49;102278.47;;;14.56
69415;BMP280;56608;43.530;-5.652;2023-05-10T02:34:50;102284.13;;;14.61
69415;BMP280;56608;43.530;-5.652;2023-05-10T02:35:51;102284.53;;;14.60
69415;BMP280;56608;43.530;-5.652;2023-05-10T02:36:53;102289.28;;;14.56
69415;BMP280;56608;43.530;-5.652;2023-05-10T02:37:53;102281.50;;;14.58
69415;BMP280;56608;43.530;-5.652;2023-05-10T02:38:54;102289.28;;;14.56
69415;BMP280;56608;43.530;-5.652;2023-05-10T02:39:55;102290.03;;;14.56
69415;BMP280;56608;43.530;-5.652;2023-05-10T02:40:56;102287.06;;;14.51
69415;BMP280;56608;43.530;-5.652;2023-05-10T02:41:57;102283.50;;;14.54
69415;BMP280;56608;43.530;-5.652;2023-05-10T02:42:57;102292.38;;;14.54
69415;BMP280;56608;43.530;-5.652;2023-05-10T02:43:59;102284.78;;;14.49
69415;BMP280;56608;43.530;-5.652;2023-05-10T02:45:02;102291.22;;;14.55
69415;BMP280;56608;43.530;-5.652;2023-05-10T02:46:03;102283.50;;;14.54
69415;BMP280;56608;43.530;-5.652;2023-05-10T02:47:04;102285.88;;;14.52
69415;BMP280;56608;43.530;-5.652;2023-05-10T02:48:04;102285.44;;;14.53
69415;BMP280;56608;43.530;-5.652;2023-05-10T02:49:05;102285.03;;;14.55
69415;BMP280;56608;43.530;-5.652;2023-05-10T02:50:05;102292.75;;;14.56
69415;BMP280;56608;43.530;-5.652;2023-05-10T02:51:07;102286.72;;;14.48
69415;BMP280;56608;43.530;-5.652;2023-05-10T02:52:08;102288.25;;;14.50
69415;BMP280;56608;43.530;-5.652;2023-05-10T02:53:15;102287.56;;;14.45
69415;BMP280;56608;43.530;-5.652;2023-05-10T02:54:18;102282.66;;;14.40
69415;BMP280;56608;43.530;-5.652;2023-05-10T02:55:19;102287.56;;;14.45
69415;BMP280;56608;43.530;-5.652;2023-05-10T02:56:22;102281.81;;;14.43
69415;BMP280;56608;43.530;-5.652;2023-05-10T02:57:27;102283.00;;;14.42
69415;BMP280;56608;43.530;-5.652;2023-05-10T02:58:28;102285.78;;;14.39
69415;BMP280;56608;43.530;-5.652;2023-05-10T02:59:29;102286.09;;;14.41
69415;BMP280;56608;43.530;-5.652;2023-05-10T03:00:29;102278.34;;;14.43
69415;BMP280;56608;43.530;-5.652;2023-05-10T03:01:29;102285.28;;;14.44
69415;BMP280;56608;43.530;-5.652;2023-05-10T03:02:30;102288.91;;;14.37
69415;BMP280;56608;43.530;-5.652;2023-05-10T03:03:30;102285.78;;;14.39
69415;BMP280;56608;43.530;-5.652;2023-05-10T03:04:31;102281.72;;;14.47
69415;BMP280;56608;43.530;-5.652;2023-05-10T03:05:31;102287.06;;;14.51
69415;BMP280;56608;43.530;-5.652;2023-05-10T03:06:31;102284.53;;;14.43
69415;BMP280;56608;43.530;-5.652;2023-05-10T03:07:32;102283.34;;;14.44
69415;BMP280;56608;43.530;-5.652;2023-05-10T03:08:33;102280.97;;;14.46
69415;BMP280;56608;43.530;-5.652;2023-05-10T03:09:33;102284.69;;;14.36
69415;BMP280;56608;43.530;-5.652;2023-05-10T03:10:36;102283.50;;;14.37
69415;BMP280;56608;43.530;-5.652;2023-05-10T03:12:41;102266.09;;;14.38
69415;BMP280;56608;43.530;-5.652;2023-05-10T03:17:00;102267.78;;;14.32
69415;BMP280;56608;43.530;-5.652;2023-05-10T03:18:15;102266.25;;;14.31
69415;BMP280;56608;43.530;-5.652;2023-05-10T03:19:24;102259.06;;;14.41
69415;BMP280;56608;43.530;-5.652;2023-05-10T03:20:29;102260.34;;;14.36
69415;BMP280;56608;43.530;-5.652;2023-05-10T03:21:31;102262.97;;;14.40
69415;BMP280;56608;43.530;-5.652;2023-05-10T03:22:44;102274.22;;;14.38
69415;BMP280;56608;43.530;-5.652;2023-05-10T03:23:46;102269.75;;;14.28
69415;BMP280;56608;43.530;-5.652;2023-05-10T03:24:48;102275.47;;;14.34
69415;BMP280;56608;43.530;-5.652;2023-05-10T03:25:49;102271.31;;;14.29
69415;BMP280;56608;43.530;-5.652;2023-05-10T03:26:50;102276.97;;;14.35
69415;BMP280;56608;43.530;-5.652;2023-05-10T03:27:52;102272.28;;;14.39
69415;BMP280;56608;43.530;-5.652;2023-05-10T03:28:54;102271.50;;;14.38
69415;BMP280;56608;43.530;-5.652;2023-05-10T03:29:54;102273.09;;;14.36
69415;BMP280;56608;43.530;-5.652;2023-05-10T03:30:56;102267.28;;;14.37
69415;BMP280;56608;43.530;-5.652;2023-05-10T03:31:59;102263.81;;;14.37
69415;BMP280;56608;43.530;-5.652;2023-05-10T03:33:06;102264.06;;;14.42
69415;BMP280;56608;43.530;-5.652;2023-05-10T03:34:06;102272.84;;;14.46
69415;BMP280;56608;43.530;-5.652;2023-05-10T03:35:10;102266.94;;;14.52
69415;BMP280;56608;43.530;-5.652;2023-05-10T03:36:11;102267.63;;;14.39
69415;BMP280;56608;43.530;-5.652;2023-05-10T03:37:12;102272.28;;;14.39
69415;BMP280;56608;43.530;-5.652;2023-05-10T03:38:12;102267.63;;;14.39
69415;BMP280;56608;43.530;-5.652;2023-05-10T03:39:12;102272.94;;;14.43
69415;BMP280;56608;43.530;-5.652;2023-05-10T03:40:13;102269.31;;;14.33
69415;BMP280;56608;43.530;-5.652;2023-05-10T03:41:13;102272.03;;;14.33
69415;BMP280;56608;43.530;-5.652;2023-05-10T03:42:14;102263.91;;;14.33
69415;BMP280;56608;43.530;-5.652;2023-05-10T03:43:14;102269.03;;;14.28
69415;BMP280;56608;43.530;-5.652;2023-05-10T03:44:15;102266.63;;;14.33
69415;BMP280;56608;43.530;-5.652;2023-05-10T03:45:15;102275.28;;;14.41
69415;BMP280;56608;43.530;-5.652;2023-05-10T03:46:15;102275.75;;;14.39
69415;BMP280;56608;43.530;-5.652;2023-05-10T03:47:15;102270.91;;;14.31
69415;BMP280;56608;43.530;-5.652;2023-05-10T03:48:16;102275.25;;;14.25
69415;BMP280;56608;43.530;-5.652;2023-05-10T03:49:16;102267.78;;;14.32
69415;BMP280;56608;43.530;-5.652;2023-05-10T03:50:16;102276.22;;;14.34
69415;BMP280;56608;43.530;-5.652;2023-05-10T03:51:18;102274.72;;;14.33
69415;BMP280;56608;43.530;-5.652;2023-05-10T03:52:18;102268.03;;;14.38
69415;BMP280;56608;43.530;-5.652;2023-05-10T03:53:18;102275.75;;;14.39
69415;BMP280;56608;43.530;-5.652;2023-05-10T03:54:19;102273.34;;;14.41
69415;BMP280;56608;43.530;-5.652;2023-05-10T03:55:20;102272.06;;;14.46
69415;BMP280;56608;43.530;-5.652;2023-05-10T03:56:20;102273.34;;;14.41
69415;BMP280;56608;43.530;-5.652;2023-05-10T03:57:21;102273.69;;;14.43
69415;BMP280;56608;43.530;-5.652;2023-05-10T03:58:21;102273.50;;;14.34
69415;BMP280;56608;43.530;-5.652;2023-05-10T03:59:22;102274.44;;;14.28
69415;BMP280;56608;43.530;-5.652;2023-05-10T04:00:22;102280.97;;;14.30
69415;BMP280;56608;43.530;-5.652;2023-05-10T04:01:22;102272.91;;;14.27
69415;BMP280;56608;43.530;-5.652;2023-05-10T04:02:22;102272.78;;;14.34
69415;BMP280;56608;43.530;-5.652;2023-05-10T04:03:23;102267.16;;;14.25
69415;BMP280;56608;43.530;-5.652;2023-05-10T04:04:23;102272.66;;;14.21
69415;BMP280;56608;43.530;-5.652;2023-05-10T04:05:23;102270.44;;;14.16
69415;BMP280;56608;43.530;-5.652;2023-05-10T04:06:24;102271.44;;;14.22
69415;BMP280;56608;43.530;-5.652;2023-05-10T04:07:24;102269.59;;;14.19
69415;BMP280;56608;43.530;-5.652;2023-05-10T04:08:24;102266.22;;;14.15
69415;BMP280;56608;43.530;-5.652;2023-05-10T04:09:25;102268.84;;;14.19
69415;BMP280;56608;43.530;-5.652;2023-05-10T04:10:25;102266.53;;;14.17
69415;BMP280;56608;43.530;-5.652;2023-05-10T04:11:26;102272.31;;;14.19
69415;BMP280;56608;43.530;-5.652;2023-05-10T04:12:26;102262.31;;;14.16
69415;BMP280;56608;43.530;-5.652;2023-05-10T04:13:26;102261.31;;;14.10
69415;BMP280;56608;43.530;-5.652;2023-05-10T04:14:27;102260.63;;;14.06
69415;BMP280;56608;43.530;-5.652;2023-05-10T04:15:27;102257.28;;;13.98
69415;BMP280;56608;43.530;-5.652;2023-05-10T04:16:28;102261.66;;;13.92
69415;BMP280;56608;43.530;-5.652;2023-05-10T04:17:28;102265.34;;;14.02
69415;BMP280;56608;43.530;-5.652;2023-05-10T04:18:29;102268.38;;;14.04
69415;BMP280;56608;43.530;-5.652;2023-05-10T04:19:30;102262.28;;;14.00
69415;BMP280;56608;43.530;-5.652;2023-05-10T04:20:32;102260.69;;;14.02
69415;BMP280;56608;43.530;-5.652;2023-05-10T04:21:32;102261.47;;;14.03
69415;BMP280;56608;43.530;-5.652;2023-05-10T04:22:32;102261.03;;;14.04
69415;BMP280;56608;43.530;-5.652;2023-05-10T04:23:33;102264.44;;;14.08
69415;BMP280;56608;43.530;-5.652;2023-05-10T04:24:33;102265.13;;;14.13
69415;BMP280;56608;43.530;-5.652;2023-05-10T04:25:34;102268.16;;;14.15
69415;BMP280;56608;43.530;-5.652;2023-05-10T04:26:35;102264.28;;;14.16
69415;BMP280;56608;43.530;-5.652;2023-05-10T04:27:35;102262.66;;;14.18
69415;BMP280;56608;43.530;-5.652;2023-05-10T04:28:36;102259.63;;;14.16
69415;BMP280;56608;43.530;-5.652;2023-05-10T04:29:36;102269.00;;;14.12
69415;BMP280;56608;43.530;-5.652;2023-05-10T04:30:36;102264.34;;;14.12
69415;BMP280;56608;43.530;-5.652;2023-05-10T04:31:37;102261.75;;;14.08
69415;BMP280;56608;43.530;-5.652;2023-05-10T04:32:37;102264.84;;;14.07
69415;BMP280;56608;43.530;-5.652;2023-05-10T04:33:38;102264.00;;;14.10
69415;BMP280;56608;43.530;-5.652;2023-05-10T04:34:38;102263.53;;;14.15
69415;BMP280;56608;43.530;-5.652;2023-05-10T04:35:38;102266.47;;;14.21
69415;BMP280;56608;43.530;-5.652;2023-05-10T04:36:40;102259.81;;;14.25
69415;BMP280;56608;43.530;-5.652;2023-05-10T04:37:40;102265.72;;;14.20
69415;BMP280;56608;43.530;-5.652;2023-05-10T04:38:40;102268.06;;;14.18
69415;BMP280;56608;43.530;-5.652;2023-05-10T04:39:41;102264.50;;;14.05
69415;BMP280;56608;43.530;-5.652;2023-05-10T04:40:41;102260.63;;;14.06
69415;BMP280;56608;43.530;-5.652;2023-05-10T04:41:41;102263.69;;;14.08
69415;BMP280;56608;43.530;-5.652;2023-05-10T04:42:42;102263.34;;;14.06
69415;BMP280;56608;43.530;-5.652;2023-05-10T04:43:43;102262.50;;;14.09
69415;BMP280;56608;43.530;-5.652;2023-05-10T04:44:43;102261.66;;;14.12
69415;BMP280;56608;43.530;-5.652;2023-05-10T04:45:44;102263.59;;;14.12
69415;BMP280;56608;43.530;-5.652;2023-05-10T04:46:44;102256.53;;;13.98
69415;BMP280;56608;43.530;-5.652;2023-05-10T04:47:44;102263.13;;;13.97
69415;BMP280;56608;43.530;-5.652;2023-05-10T04:48:45;102260.75;;;13.99
69415;BMP280;56608;43.530;-5.652;2023-05-10T04:49:45;102262.28;;;14.00
69415;BMP280;56608;43.530;-5.652;2023-05-10T04:50:45;102261.09;;;14.01
69415;BMP280;56608;43.530;-5.652;2023-05-10T04:51:46;102264.31;;;13.96
69415;BMP280;56608;43.530;-5.652;2023-05-10T04:52:46;102263.81;;;14.01
69415;BMP280;56608;43.530;-5.652;2023-05-10T04:53:46;102260.63;;;14.06
69415;BMP280;56608;43.530;-5.652;2023-05-10T04:54:47;102261.09;;;14.01
69415;BMP280;56608;43.530;-5.652;2023-05-10T04:55:47;102261.59;;;13.96
69415;BMP280;56608;43.530;-5.652;2023-05-10T04:56:48;102261.59;;;13.96
69415;BMP280;56608;43.530;-5.652;2023-05-10T04:57:48;102254.25;;;13.96
69415;BMP280;56608;43.530;-5.652;2023-05-10T04:58:48;102264.72;;;13.94
69415;BMP280;56608;43.530;-5.652;2023-05-10T04:59:49;102262.56;;;13.86
69415;BMP280;56608;43.530;-5.652;2023-05-10T05:00:49;102269.19;;;13.85
69415;BMP280;56608;43.530;-5.652;2023-05-10T05:01:50;102261.06;;;13.85
69415;BMP280;56608;43.530;-5.652;2023-05-10T05:02:50;102258.69;;;13.87
69415;BMP280;56608;43.530;-5.652;2023-05-10T05:03:51;102254.47;;;13.86
69415;BMP280;56608;43.530;-5.652;2023-05-10T05:04:52;102262.66;;;13.82
69415;BMP280;56608;43.530;-5.652;2023-05-10T05:05:53;102255.66;;;13.85
69415;BMP280;56608;43.530;-5.652;2023-05-10T05:06:53;102262.56;;;13.86
69415;BMP280;56608;43.530;-5.652;2023-05-10T05:07:53;102270.47;;;13.77
69415;BMP280;56608;43.530;-5.652;2023-05-10T05:08:54;102254.19;;;13.80
69415;BMP280;56608;43.530;-5.652;2023-05-10T05:09:54;102262.56;;;13.86
69415;BMP280;56608;43.530;-5.652;2023-05-10T05:10:54;102260.75;;;13.99
69415;BMP280;56608;43.530;-5.652;2023-05-10T05:11:55;102262.97;;;14.04
69415;BMP280;56608;43.530;-5.652;2023-05-10T05:12:55;102262.78;;;13.95
69415;BMP280;56608;43.530;-5.652;2023-05-10T05:13:55;102267.41;;;13.94
69415;BMP280;56608;43.530;-5.652;2023-05-10T05:14:56;102268.78;;;14.02
69415;BMP280;56608;43.530;-5.652;2023-05-10T05:15:56;102265.69;;;14.04
69415;BMP280;56608;43.530;-5.652;2023-05-10T05:16:56;102267.56;;;14.07
69415;BMP280;56608;43.530;-5.652;2023-05-10T05:17:57;102267.91;;;14.09
69415;BMP280;56608;43.530;-5.652;2023-05-10T05:18:57;102261.03;;;14.04
69415;BMP280;56608;43.530;-5.652;2023-05-10T05:19:58;102259.94;;;14.02
69415;BMP280;56608;43.530;-5.652;2023-05-10T05:20:59;102262.16;;;14.07
69415;BMP280;56608;43.530;-5.652;2023-05-10T05:21:59;102255.91;;;14.10
69415;BMP280;56608;43.530;-5.652;2023-05-10T05:22:59;102262.50;;;14.09
69415;BMP280;56608;43.530;-5.652;2023-05-10T05:24:00;102260.13;;;14.11
69415;BMP280;56608;43.530;-5.652;2023-05-10T05:25:00;102265.03;;;14.16
69415;BMP280;56608;43.530;-5.652;2023-05-10T05:26:02;102258.34;;;14.04
69415;BMP280;56608;43.530;-5.652;2023-05-10T05:27:02;102261.09;;;14.01
69415;BMP280;56608;43.530;-5.652;2023-05-10T05:28:03;102265.38;;;13.98
69415;BMP280;56608;43.530;-5.652;2023-05-10T05:29:03;102257.88;;;13.90
69415;BMP280;56608;43.530;-5.652;2023-05-10T05:30:04;102268.31;;;13.88
69415;BMP280;56608;43.530;-5.652;2023-05-10T05:31:04;102264.94;;;13.84
69415;BMP280;56608;43.530;-5.652;2023-05-10T05:32:05;102268.75;;;13.86
69415;BMP280;56608;43.530;-5.652;2023-05-10T05:33:08;102270.34;;;13.84
69415;BMP280;56608;43.530;-5.652;2023-05-10T05:34:08;102275.81;;;13.80
69415;BMP280;56608;43.530;-5.652;2023-05-10T05:35:08;102270.34;;;13.84
69415;BMP280;56608;43.530;-5.652;2023-05-10T05:36:09;102280.31;;;13.87
69415;BMP280;56608;43.530;-5.652;2023-05-10T05:37:12;102281.16;;;13.84
69415;BMP280;56608;43.530;-5.652;2023-05-10T05:38:12;102278.03;;;13.85
69415;BMP280;56608;43.530;-5.652;2023-05-10T05:39:13;102275.94;;;13.93
69415;BMP280;56608;43.530;-5.652;2023-05-10T05:40:13;102280.09;;;13.97
69415;BMP280;56608;43.530;-5.652;2023-05-10T05:41:14;102287.44;;;13.97
69415;BMP280;56608;43.530;-5.652;2023-05-10T05:42:14;102286.59;;;14.00
69415;BMP280;56608;43.530;-5.652;2023-05-10T05:43:16;102281.91;;;14.04
69415;BMP280;56608;43.530;-5.652;2023-05-10T05:44:16;102287.78;;;13.99
69415;BMP280;56608;43.530;-5.652;2023-05-10T05:45:17;102287.31;;;14.04
69415;BMP280;56608;43.530;-5.652;2023-05-10T05:46:17;102290.72;;;14.08
69415;BMP280;56608;43.530;-5.652;2023-05-10T05:47:17;102287.16;;;14.11
69415;BMP280;56608;43.530;-5.652;2023-05-10T05:48:18;102288.63;;;14.16
69415;BMP280;56608;43.530;-5.652;2023-05-10T05:49:18;102290.56;;;14.15
69415;BMP280;56608;43.530;-5.652;2023-05-10T05:50:18;102285.47;;;14.17
69415;BMP280;56608;43.530;-5.652;2023-05-10T05:51:19;102288.53;;;14.19
69415;BMP280;56608;43.530;-5.652;2023-05-10T05:52:19;102291.13;;;14.23
69415;BMP280;56608;43.530;-5.652;2023-05-10T05:53:19;102295.88;;;14.19
69415;BMP280;56608;43.530;-5.652;2023-05-10T05:54:20;102295.25;;;14.11
69415;BMP280;56608;43.530;-5.652;2023-05-10T05:55:20;102294.34;;;14.18
69415;BMP280;56608;43.530;-5.652;2023-05-10T05:56:21;102286.16;;;14.21
69415;BMP280;56608;43.530;-5.652;2023-05-10T05:57:24;102290.72;;;14.24
69415;BMP280;56608;43.530;-5.652;2023-05-10T05:58:26;102297.84;;;14.34
69415;BMP280;56608;43.530;-5.652;2023-05-10T05:59:27;102293.56;;;14.37